sensor_id;sensor_type;location;lat;lon;timestamp;temperature;humidity
1996;DHT22;38556;47.068;15.408;2023-02-28T00:01:12;2.30;66.20
1996;DHT22;38556;47.068;15.408;2023-02-28T00:03:40;2.50;66.90
1996;DHT22;38556;47.068;15.408;2023-02-28T00:06:08;2.60;66.80
1996;DHT22;38556;47.068;15.408;2023-02-28T00:08:36;2.70;65.90
1996;DHT22;38556;47.068;15.408;2023-02-28T00:11:05;2.70;66.40
1996;DHT22;38556;47.068;15.408;2023-02-28T00:13:37;2.80;65.70
1996;DHT22;38556;47.068;15.408;2023-02-28T00:16:06;2.80;65.50
1996;DHT22;38556;47.068;15.408;2023-02-28T00:18:35;2.80;65.30
1996;DHT22;38556;47.068;15.408;2023-02-28T00:21:03;2.80;65.90
1996;DHT22;38556;47.068;15.408;2023-02-28T00:23:30;2.80;65.90
1996;DHT22;38556;47.068;15.408;2023-02-28T00:25:58;2.90;65.70
1996;DHT22;38556;47.068;15.408;2023-02-28T00:28:26;2.90;64.80
1996;DHT22;38556;47.068;15.408;2023-02-28T00:30:55;2.90;65.30
1996;DHT22;38556;47.068;15.408;2023-02-28T00:33:23;2.90;65.20
1996;DHT22;38556;47.068;15.408;2023-02-28T00:35:50;2.90;65.40
1996;DHT22;38556;47.068;15.408;2023-02-28T00:38:17;2.90;64.70
1996;DHT22;38556;47.068;15.408;2023-02-28T00:40:45;2.90;64.80
1996;DHT22;38556;47.068;15.408;2023-02-28T00:43:12;2.90;65.60
1996;DHT22;38556;47.068;15.408;2023-02-28T00:45:40;2.90;66.40
1996;DHT22;38556;47.068;15.408;2023-02-28T00:48:09;2.80;66.00
1996;DHT22;38556;47.068;15.408;2023-02-28T00:50:36;2.80;66.70
1996;DHT22;38556;47.068;15.408;2023-02-28T00:53:04;2.80;66.50
1996;DHT22;38556;47.068;15.408;2023-02-28T00:55:31;2.70;66.50
1996;DHT22;38556;47.068;15.408;2023-02-28T00:57:59;2.80;66.00
1996;DHT22;38556;47.068;15.408;2023-02-28T01:00:26;2.80;66.40
1996;DHT22;38556;47.068;15.408;2023-02-28T01:02:54;2.80;66.30
1996;DHT22;38556;47.068;15.408;2023-02-28T01:05:22;2.80;66.30
1996;DHT22;38556;47.068;15.408;2023-02-28T01:07:50;2.90;65.90
1996;DHT22;38556;47.068;15.408;2023-02-28T01:10:17;2.90;66.50
1996;DHT22;38556;47.068;15.408;2023-02-28T01:12:45;2.50;67.00
1996;DHT22;38556;47.068;15.408;2023-02-28T01:15:12;2.50;67.60
1996;DHT22;38556;47.068;15.408;2023-02-28T01:17:40;2.20;67.50
1996;DHT22;38556;47.068;15.408;2023-02-28T01:20:08;2.30;68.30
1996;DHT22;38556;47.068;15.408;2023-02-28T01:22:37;2.20;68.50
1996;DHT22;38556;47.068;15.408;2023-02-28T01:25:05;2.30;68.80
1996;DHT22;38556;47.068;15.408;2023-02-28T01:27:33;2.30;68.20
1996;DHT22;38556;47.068;15.408;2023-02-28T01:30:01;2.30;68.90
1996;DHT22;38556;47.068;15.408;2023-02-28T01:32:29;2.50;69.10
1996;DHT22;38556;47.068;15.408;2023-02-28T01:34:56;2.40;69.00
1996;DHT22;38556;47.068;15.408;2023-02-28T01:37:24;2.40;68.60
1996;DHT22;38556;47.068;15.408;2023-02-28T01:39:52;2.50;69.30
1996;DHT22;38556;47.068;15.408;2023-02-28T01:42:20;2.50;69.20
1996;DHT22;38556;47.068;15.408;2023-02-28T01:45:15;2.60;69.10
1996;DHT22;38556;47.068;15.408;2023-02-28T01:47:45;2.70;68.40
1996;DHT22;38556;47.068;15.408;2023-02-28T01:50:16;2.80;68.30
1996;DHT22;38556;47.068;15.408;2023-02-28T01:52:45;2.80;68.30
1996;DHT22;38556;47.068;15.408;2023-02-28T01:55:17;2.80;68.90
1996;DHT22;38556;47.068;15.408;2023-02-28T01:57:48;2.90;68.40
1996;DHT22;38556;47.068;15.408;2023-02-28T02:00:18;2.90;69.00
1996;DHT22;38556;47.068;15.408;2023-02-28T02:02:49;2.90;69.20
1996;DHT22;38556;47.068;15.408;2023-02-28T02:05:20;2.90;69.50
1996;DHT22;38556;47.068;15.408;2023-02-28T02:07:51;2.90;68.80
1996;DHT22;38556;47.068;15.408;2023-02-28T02:10:23;2.90;69.40
1996;DHT22;38556;47.068;15.408;2023-02-28T02:13:08;3.00;69.40
1996;DHT22;38556;47.068;15.408;2023-02-28T02:15:41;3.00;69.30
1996;DHT22;38556;47.068;15.408;2023-02-28T02:18:18;3.00;68.60
1996;DHT22;38556;47.068;15.408;2023-02-28T02:27:39;3.00;68.60
1996;DHT22;38556;47.068;15.408;2023-02-28T02:30:48;3.00;68.50
1996;DHT22;38556;47.068;15.408;2023-02-28T02:33:38;3.00;68.40
1996;DHT22;38556;47.068;15.408;2023-02-28T02:36:14;3.00;69.20
1996;DHT22;38556;47.068;15.408;2023-02-28T02:38:48;3.00;68.60
1996;DHT22;38556;47.068;15.408;2023-02-28T02:41:23;3.00;68.40
1996;DHT22;38556;47.068;15.408;2023-02-28T02:43:53;3.00;68.30
1996;DHT22;38556;47.068;15.408;2023-02-28T02:46:25;3.10;68.40
1996;DHT22;38556;47.068;15.408;2023-02-28T02:48:56;3.10;68.40
1996;DHT22;38556;47.068;15.408;2023-02-28T02:51:27;3.10;68.70
1996;DHT22;38556;47.068;15.408;2023-02-28T02:56:28;3.00;69.70
1996;DHT22;38556;47.068;15.408;2023-02-28T02:58:59;3.00;70.00
1996;DHT22;38556;47.068;15.408;2023-02-28T03:01:30;3.00;70.30
1996;DHT22;38556;47.068;15.408;2023-02-28T03:04:00;3.00;70.30
1996;DHT22;38556;47.068;15.408;2023-02-28T03:06:30;3.00;70.40
1996;DHT22;38556;47.068;15.408;2023-02-28T03:08:57;3.00;70.50
1996;DHT22;38556;47.068;15.408;2023-02-28T03:11:24;3.00;70.70
1996;DHT22;38556;47.068;15.408;2023-02-28T03:13:58;3.00;70.90
1996;DHT22;38556;47.068;15.408;2023-02-28T03:16:33;3.00;71.50
1996;DHT22;38556;47.068;15.408;2023-02-28T03:19:12;3.00;71.00
1996;DHT22;38556;47.068;15.408;2023-02-28T03:21:54;3.10;71.30
1996;DHT22;38556;47.068;15.408;2023-02-28T03:24:29;3.30;72.20
1996;DHT22;38556;47.068;15.408;2023-02-28T03:27:06;3.00;71.00
1996;DHT22;38556;47.068;15.408;2023-02-28T03:29:37;3.00;71.00
1996;DHT22;38556;47.068;15.408;2023-02-28T03:32:11;3.40;72.20
1996;DHT22;38556;47.068;15.408;2023-02-28T03:34:42;3.00;71.70
1996;DHT22;38556;47.068;15.408;2023-02-28T03:37:19;3.00;70.80
1996;DHT22;38556;47.068;15.408;2023-02-28T03:39:53;3.00;71.20
1996;DHT22;38556;47.068;15.408;2023-02-28T03:42:25;3.00;70.70
1996;DHT22;38556;47.068;15.408;2023-02-28T03:44:57;3.00;70.60
1996;DHT22;38556;47.068;15.408;2023-02-28T03:47:29;3.00;70.00
1996;DHT22;38556;47.068;15.408;2023-02-28T03:50:01;2.90;70.10
1996;DHT22;38556;47.068;15.408;2023-02-28T03:52:34;3.00;70.90
1996;DHT22;38556;47.068;15.408;2023-02-28T03:55:07;2.90;70.80
1996;DHT22;38556;47.068;15.408;2023-02-28T03:57:41;2.90;70.10
1996;DHT22;38556;47.068;15.408;2023-02-28T04:00:14;3.20;71.00
1996;DHT22;38556;47.068;15.408;2023-02-28T04:02:43;2.90;70.10
1996;DHT22;38556;47.068;15.408;2023-02-28T04:05:10;3.00;70.30
1996;DHT22;38556;47.068;15.408;2023-02-28T04:07:39;3.00;70.30
1996;DHT22;38556;47.068;15.408;2023-02-28T04:10:08;2.90;70.90
1996;DHT22;38556;47.068;15.408;2023-02-28T04:12:36;2.90;71.20
1996;DHT22;38556;47.068;15.408;2023-02-28T04:15:03;3.10;71.70
1996;DHT22;38556;47.068;15.408;2023-02-28T04:17:31;2.90;71.00
1996;DHT22;38556;47.068;15.408;2023-02-28T04:19:58;2.90;71.70
1996;DHT22;38556;47.068;15.408;2023-02-28T04:22:25;3.00;71.80
1996;DHT22;38556;47.068;15.408;2023-02-28T04:24:55;2.90;70.90
1996;DHT22;38556;47.068;15.408;2023-02-28T04:27:22;3.00;71.00
1996;DHT22;38556;47.068;15.408;2023-02-28T04:29:49;3.00;71.60
1996;DHT22;38556;47.068;15.408;2023-02-28T04:34:44;3.00;70.90
1996;DHT22;38556;47.068;15.408;2023-02-28T04:37:12;3.00;70.90
1996;DHT22;38556;47.068;15.408;2023-02-28T04:39:40;3.00;70.90
1996;DHT22;38556;47.068;15.408;2023-02-28T04:42:09;3.10;71.70
1996;DHT22;38556;47.068;15.408;2023-02-28T04:44:36;3.00;71.50
1996;DHT22;38556;47.068;15.408;2023-02-28T04:47:04;3.00;70.80
1996;DHT22;38556;47.068;15.408;2023-02-28T04:49:31;3.00;70.70
1996;DHT22;38556;47.068;15.408;2023-02-28T04:51:59;3.10;71.40
1996;DHT22;38556;47.068;15.408;2023-02-28T04:54:26;3.00;71.20
1996;DHT22;38556;47.068;15.408;2023-02-28T04:56:54;2.80;70.60
1996;DHT22;38556;47.068;15.408;2023-02-28T04:59:22;2.80;71.00
1996;DHT22;38556;47.068;15.408;2023-02-28T05:01:50;2.90;71.70
1996;DHT22;38556;47.068;15.408;2023-02-28T05:04:17;2.80;71.30
1996;DHT22;38556;47.068;15.408;2023-02-28T05:06:45;2.80;71.30
1996;DHT22;38556;47.068;15.408;2023-02-28T05:09:12;2.70;71.00
1996;DHT22;38556;47.068;15.408;2023-02-28T05:11:40;2.70;71.40
1996;DHT22;38556;47.068;15.408;2023-02-28T05:14:11;2.80;71.40
1996;DHT22;38556;47.068;15.408;2023-02-28T05:19:07;2.80;70.70
1996;DHT22;38556;47.068;15.408;2023-02-28T05:21:36;2.80;70.70
1996;DHT22;38556;47.068;15.408;2023-02-28T05:24:06;2.80;70.70
1996;DHT22;38556;47.068;15.408;2023-02-28T05:26:36;2.80;71.30
1996;DHT22;38556;47.068;15.408;2023-02-28T05:29:04;2.80;70.50
1996;DHT22;38556;47.068;15.408;2023-02-28T05:31:32;2.90;71.30
1996;DHT22;38556;47.068;15.408;2023-02-28T05:34:01;2.90;71.30
1996;DHT22;38556;47.068;15.408;2023-02-28T05:36:30;2.70;71.30
1996;DHT22;38556;47.068;15.408;2023-02-28T05:38:58;2.60;70.80
1996;DHT22;38556;47.068;15.408;2023-02-28T05:41:25;2.40;71.50
1996;DHT22;38556;47.068;15.408;2023-02-28T05:43:52;2.70;70.90
1996;DHT22;38556;47.068;15.408;2023-02-28T05:46:19;2.80;71.50
1996;DHT22;38556;47.068;15.408;2023-02-28T05:48:48;2.80;70.70
1996;DHT22;38556;47.068;15.408;2023-02-28T05:51:17;2.80;71.20
1996;DHT22;38556;47.068;15.408;2023-02-28T05:53:44;2.80;71.70
1996;DHT22;38556;47.068;15.408;2023-02-28T05:56:12;2.60;71.20
1996;DHT22;38556;47.068;15.408;2023-02-28T05:58:39;2.50;71.30
1996;DHT22;38556;47.068;15.408;2023-02-28T06:01:21;2.50;72.00
1996;DHT22;38556;47.068;15.408;2023-02-28T06:03:49;2.50;72.30
1996;DHT22;38556;47.068;15.408;2023-02-28T06:06:18;2.60;72.20
1996;DHT22;38556;47.068;15.408;2023-02-28T06:08:45;2.70;71.50
1996;DHT22;38556;47.068;15.408;2023-02-28T06:11:13;2.70;72.20
1996;DHT22;38556;47.068;15.408;2023-02-28T06:13:40;2.70;71.70
1996;DHT22;38556;47.068;15.408;2023-02-28T06:16:10;2.80;71.80
1996;DHT22;38556;47.068;15.408;2023-02-28T06:18:37;2.80;71.90
1996;DHT22;38556;47.068;15.408;2023-02-28T06:21:05;2.70;72.50
1996;DHT22;38556;47.068;15.408;2023-02-28T06:23:33;2.70;72.00
1996;DHT22;38556;47.068;15.408;2023-02-28T06:26:01;2.70;72.60
1996;DHT22;38556;47.068;15.408;2023-02-28T06:28:28;2.70;72.10
1996;DHT22;38556;47.068;15.408;2023-02-28T06:30:55;2.70;72.10
1996;DHT22;38556;47.068;15.408;2023-02-28T06:33:23;2.70;72.10
1996;DHT22;38556;47.068;15.408;2023-02-28T06:35:51;2.70;72.00
1996;DHT22;38556;47.068;15.408;2023-02-28T06:38:18;2.70;71.90
1996;DHT22;38556;47.068;15.408;2023-02-28T06:40:54;2.70;71.70
1996;DHT22;38556;47.068;15.408;2023-02-28T06:43:22;2.70;71.90
1996;DHT22;38556;47.068;15.408;2023-02-28T06:45:49;2.60;71.80
1996;DHT22;38556;47.068;15.408;2023-02-28T06:48:17;2.70;72.40
1996;DHT22;38556;47.068;15.408;2023-02-28T06:50:45;2.80;72.60
1996;DHT22;38556;47.068;15.408;2023-02-28T06:53:13;2.80;72.50
1996;DHT22;38556;47.068;15.408;2023-02-28T06:55:40;2.90;78.90
1996;DHT22;38556;47.068;15.408;2023-02-28T06:58:09;2.90;77.90
1996;DHT22;38556;47.068;15.408;2023-02-28T07:00:41;2.90;76.80
1996;DHT22;38556;47.068;15.408;2023-02-28T07:03:10;2.90;76.30
1996;DHT22;38556;47.068;15.408;2023-02-28T07:05:37;2.90;80.20
1996;DHT22;38556;47.068;15.408;2023-02-28T07:08:05;3.00;83.80
1996;DHT22;38556;47.068;15.408;2023-02-28T07:10:33;2.90;80.80
1996;DHT22;38556;47.068;15.408;2023-02-28T07:13:01;2.80;77.90
1996;DHT22;38556;47.068;15.408;2023-02-28T07:15:29;2.80;77.80
1996;DHT22;38556;47.068;15.408;2023-02-28T07:17:57;2.90;75.80
1996;DHT22;38556;47.068;15.408;2023-02-28T07:20:27;3.00;75.30
1996;DHT22;38556;47.068;15.408;2023-02-28T07:22:54;3.10;75.20
1996;DHT22;38556;47.068;15.408;2023-02-28T07:25:22;3.10;75.40
1996;DHT22;38556;47.068;15.408;2023-02-28T07:27:50;3.20;74.40
1996;DHT22;38556;47.068;15.408;2023-02-28T07:30:17;3.20;74.20
1996;DHT22;38556;47.068;15.408;2023-02-28T07:32:47;3.20;73.70
1996;DHT22;38556;47.068;15.408;2023-02-28T07:35:14;3.20;73.40
1996;DHT22;38556;47.068;15.408;2023-02-28T07:37:42;3.10;73.20
1996;DHT22;38556;47.068;15.408;2023-02-28T07:40:11;3.00;73.40
1996;DHT22;38556;47.068;15.408;2023-02-28T07:42:39;3.00;73.50
1996;DHT22;38556;47.068;15.408;2023-02-28T07:45:07;3.10;74.00
1996;DHT22;38556;47.068;15.408;2023-02-28T07:47:37;3.20;74.00
1996;DHT22;38556;47.068;15.408;2023-02-28T07:50:08;3.20;74.00
1996;DHT22;38556;47.068;15.408;2023-02-28T07:52:36;3.10;75.80
1996;DHT22;38556;47.068;15.408;2023-02-28T07:55:05;3.20;76.60
1996;DHT22;38556;47.068;15.408;2023-02-28T07:57:32;3.20;75.90
1996;DHT22;38556;47.068;15.408;2023-02-28T08:00:00;3.20;76.00
1996;DHT22;38556;47.068;15.408;2023-02-28T08:02:27;3.30;74.60
1996;DHT22;38556;47.068;15.408;2023-02-28T08:04:54;3.30;74.40
1996;DHT22;38556;47.068;15.408;2023-02-28T08:07:23;3.30;74.10
1996;DHT22;38556;47.068;15.408;2023-02-28T08:09:50;3.00;73.40
1996;DHT22;38556;47.068;15.408;2023-02-28T08:12:18;3.10;73.70
1996;DHT22;38556;47.068;15.408;2023-02-28T08:14:45;3.00;73.90
1996;DHT22;38556;47.068;15.408;2023-02-28T08:17:13;3.10;74.00
1996;DHT22;38556;47.068;15.408;2023-02-28T08:19:40;5.20;76.00
1996;DHT22;38556;47.068;15.408;2023-02-28T08:22:08;3.10;73.80
1996;DHT22;38556;47.068;15.408;2023-02-28T08:24:36;3.00;73.90
1996;DHT22;38556;47.068;15.408;2023-02-28T08:27:03;3.00;73.80
1996;DHT22;38556;47.068;15.408;2023-02-28T08:31:59;3.00;74.30
1996;DHT22;38556;47.068;15.408;2023-02-28T08:34:27;3.10;74.40
1996;DHT22;38556;47.068;15.408;2023-02-28T08:36:54;3.20;74.40
1996;DHT22;38556;47.068;15.408;2023-02-28T08:39:22;3.20;74.40
1996;DHT22;38556;47.068;15.408;2023-02-28T08:41:50;3.30;74.30
1996;DHT22;38556;47.068;15.408;2023-02-28T08:44:18;3.40;74.20
1996;DHT22;38556;47.068;15.408;2023-02-28T08:46:45;3.40;74.30
1996;DHT22;38556;47.068;15.408;2023-02-28T08:49:12;3.50;73.90
1996;DHT22;38556;47.068;15.408;2023-02-28T08:51:40;3.40;73.30
1996;DHT22;38556;47.068;15.408;2023-02-28T08:54:08;3.20;73.70
1996;DHT22;38556;47.068;15.408;2023-02-28T08:56:39;3.30;73.80
1996;DHT22;38556;47.068;15.408;2023-02-28T08:59:08;3.40;73.90
1996;DHT22;38556;47.068;15.408;2023-02-28T09:01:36;3.50;73.70
1996;DHT22;38556;47.068;15.408;2023-02-28T09:04:03;3.50;74.00
1996;DHT22;38556;47.068;15.408;2023-02-28T09:06:32;3.50;73.80
1996;DHT22;38556;47.068;15.408;2023-02-28T09:09:00;3.60;73.70
1996;DHT22;38556;47.068;15.408;2023-02-28T09:11:28;3.60;73.70
1996;DHT22;38556;47.068;15.408;2023-02-28T09:13:57;3.40;73.70
1996;DHT22;38556;47.068;15.408;2023-02-28T09:16:26;3.60;73.40
1996;DHT22;38556;47.068;15.408;2023-02-28T09:18:54;3.40;74.60
1996;DHT22;38556;47.068;15.408;2023-02-28T09:21:21;3.30;77.10
1996;DHT22;38556;47.068;15.408;2023-02-28T09:23:50;3.30;77.50
1996;DHT22;38556;47.068;15.408;2023-02-28T09:28:46;3.30;75.00
1996;DHT22;38556;47.068;15.408;2023-02-28T09:31:15;3.40;74.80
1996;DHT22;38556;47.068;15.408;2023-02-28T09:33:44;3.50;74.60
1996;DHT22;38556;47.068;15.408;2023-02-28T09:36:11;3.50;74.40
1996;DHT22;38556;47.068;15.408;2023-02-28T09:38:38;3.70;73.80
1996;DHT22;38556;47.068;15.408;2023-02-28T09:41:13;3.60;73.70
1996;DHT22;38556;47.068;15.408;2023-02-28T09:43:43;3.70;73.90
1996;DHT22;38556;47.068;15.408;2023-02-28T09:46:27;3.70;74.10
1996;DHT22;38556;47.068;15.408;2023-02-28T09:48:57;3.80;74.30
1996;DHT22;38556;47.068;15.408;2023-02-28T09:51:33;3.90;73.70
1996;DHT22;38556;47.068;15.408;2023-02-28T09:54:01;4.00;73.40
1996;DHT22;38556;47.068;15.408;2023-02-28T09:59:02;3.90;73.40
1996;DHT22;38556;47.068;15.408;2023-02-28T10:01:39;3.90;73.90
1996;DHT22;38556;47.068;15.408;2023-02-28T10:06:45;3.70;73.50
1996;DHT22;38556;47.068;15.408;2023-02-28T10:09:17;3.60;73.90
1996;DHT22;38556;47.068;15.408;2023-02-28T10:11:47;3.90;74.00
1996;DHT22;38556;47.068;15.408;2023-02-28T10:14:16;4.00;73.50
1996;DHT22;38556;47.068;15.408;2023-02-28T10:16:48;4.00;73.20
1996;DHT22;38556;47.068;15.408;2023-02-28T10:19:22;4.00;73.00
1996;DHT22;38556;47.068;15.408;2023-02-28T10:21:56;4.00;73.40
1996;DHT22;38556;47.068;15.408;2023-02-28T10:24:29;4.10;73.50
1996;DHT22;38556;47.068;15.408;2023-02-28T10:27:00;4.10;73.20
1996;DHT22;38556;47.068;15.408;2023-02-28T10:29:31;4.10;73.10
1996;DHT22;38556;47.068;15.408;2023-02-28T10:32:01;4.10;73.20
1996;DHT22;38556;47.068;15.408;2023-02-28T10:34:31;4.30;73.10
1996;DHT22;38556;47.068;15.408;2023-02-28T10:36:59;4.40;72.80
1996;DHT22;38556;47.068;15.408;2023-02-28T10:39:36;4.40;72.30
1996;DHT22;38556;47.068;15.408;2023-02-28T10:42:04;4.20;72.10
1996;DHT22;38556;47.068;15.408;2023-02-28T10:44:31;4.10;73.40
1996;DHT22;38556;47.068;15.408;2023-02-28T10:46:59;4.20;73.40
1996;DHT22;38556;47.068;15.408;2023-02-28T10:49:28;4.40;73.40
1996;DHT22;38556;47.068;15.408;2023-02-28T10:51:59;4.20;73.10
1996;DHT22;38556;47.068;15.408;2023-02-28T10:54:29;4.30;74.00
1996;DHT22;38556;47.068;15.408;2023-02-28T10:57:16;4.20;73.20
1996;DHT22;38556;47.068;15.408;2023-02-28T10:59:45;4.10;73.60
1996;DHT22;38556;47.068;15.408;2023-02-28T11:04:57;4.10;73.70
1996;DHT22;38556;47.068;15.408;2023-02-28T11:09:56;4.10;73.90
1996;DHT22;38556;47.068;15.408;2023-02-28T11:12:27;3.90;74.90
1996;DHT22;38556;47.068;15.408;2023-02-28T11:14:57;4.00;74.80
1996;DHT22;38556;47.068;15.408;2023-02-28T11:19:57;4.80;86.40
1996;DHT22;38556;47.068;15.408;2023-02-28T11:22:29;5.10;81.90
1996;DHT22;38556;47.068;15.408;2023-02-28T11:25:00;5.10;82.60
1996;DHT22;38556;47.068;15.408;2023-02-28T11:27:44;5.40;76.10
1996;DHT22;38556;47.068;15.408;2023-02-28T11:30:30;5.40;75.30
1996;DHT22;38556;47.068;15.408;2023-02-28T11:32:58;5.10;74.20
1996;DHT22;38556;47.068;15.408;2023-02-28T11:35:29;4.90;77.20
1996;DHT22;38556;47.068;15.408;2023-02-28T11:37:59;5.10;74.60
1996;DHT22;38556;47.068;15.408;2023-02-28T11:40:39;5.00;73.80
1996;DHT22;38556;47.068;15.408;2023-02-28T11:43:23;5.10;74.10
1996;DHT22;38556;47.068;15.408;2023-02-28T11:46:06;4.70;71.90
1996;DHT22;38556;47.068;15.408;2023-02-28T11:48:45;4.70;73.20
1996;DHT22;38556;47.068;15.408;2023-02-28T11:54:15;4.70;73.40
1996;DHT22;38556;47.068;15.408;2023-02-28T11:56:50;5.50;87.20
1996;DHT22;38556;47.068;15.408;2023-02-28T11:59:34;5.60;89.50
1996;DHT22;38556;47.068;15.408;2023-02-28T12:02:23;5.30;78.80
1996;DHT22;38556;47.068;15.408;2023-02-28T12:05:11;5.40;78.80
1996;DHT22;38556;47.068;15.408;2023-02-28T12:07:50;5.50;73.70
1996;DHT22;38556;47.068;15.408;2023-02-28T12:10:25;5.30;72.00
1996;DHT22;38556;47.068;15.408;2023-02-28T12:13:06;5.10;71.80
1996;DHT22;38556;47.068;15.408;2023-02-28T12:19:02;5.40;72.00
1996;DHT22;38556;47.068;15.408;2023-02-28T12:21:40;5.50;72.70
1996;DHT22;38556;47.068;15.408;2023-02-28T12:24:31;5.70;71.00
1996;DHT22;38556;47.068;15.408;2023-02-28T12:27:10;6.20;86.80
1996;DHT22;38556;47.068;15.408;2023-02-28T12:29:44;6.30;86.30
1996;DHT22;38556;47.068;15.408;2023-02-28T12:32:16;6.20;81.40
1996;DHT22;38556;47.068;15.408;2023-02-28T12:34:49;5.70;72.60
1996;DHT22;38556;47.068;15.408;2023-02-28T12:37:22;5.50;72.70
1996;DHT22;38556;47.068;15.408;2023-02-28T12:39:54;5.40;72.20
1996;DHT22;38556;47.068;15.408;2023-02-28T12:42:30;5.50;72.20
1996;DHT22;38556;47.068;15.408;2023-02-28T12:45:02;5.60;72.60
1996;DHT22;38556;47.068;15.408;2023-02-28T12:47:30;5.80;71.50
1996;DHT22;38556;47.068;15.408;2023-02-28T12:50:00;5.60;72.20
1996;DHT22;38556;47.068;15.408;2023-02-28T12:52:37;5.60;72.90
1996;DHT22;38556;47.068;15.408;2023-02-28T12:57:48;5.50;72.90
1996;DHT22;38556;47.068;15.408;2023-02-28T13:00:19;5.40;73.30
1996;DHT22;38556;47.068;15.408;2023-02-28T13:05:56;5.70;74.60
1996;DHT22;38556;47.068;15.408;2023-02-28T13:08:59;5.40;73.60
1996;DHT22;38556;47.068;15.408;2023-02-28T13:11:29;5.50;74.40
1996;DHT22;38556;47.068;15.408;2023-02-28T13:14:01;5.50;73.50
1996;DHT22;38556;47.068;15.408;2023-02-28T13:16:54;5.50;73.10
1996;DHT22;38556;47.068;15.408;2023-02-28T13:19:25;5.60;73.10
1996;DHT22;38556;47.068;15.408;2023-02-28T13:21:53;5.70;73.60
1996;DHT22;38556;47.068;15.408;2023-02-28T13:24:43;5.60;74.00
1996;DHT22;38556;47.068;15.408;2023-02-28T13:27:23;5.60;73.90
1996;DHT22;38556;47.068;15.408;2023-02-28T13:29:53;5.60;74.50
1996;DHT22;38556;47.068;15.408;2023-02-28T13:32:33;5.40;74.20
1996;DHT22;38556;47.068;15.408;2023-02-28T13:38:18;5.60;73.60
1996;DHT22;38556;47.068;15.408;2023-02-28T13:40:49;5.80;73.70
1996;DHT22;38556;47.068;15.408;2023-02-28T13:43:17;5.80;73.10
1996;DHT22;38556;47.068;15.408;2023-02-28T13:46:09;5.50;73.10
1996;DHT22;38556;47.068;15.408;2023-02-28T13:48:37;5.60;73.40
1996;DHT22;38556;47.068;15.408;2023-02-28T13:54:23;5.90;73.90
1996;DHT22;38556;47.068;15.408;2023-02-28T13:57:03;5.70;73.50
1996;DHT22;38556;47.068;15.408;2023-02-28T13:59:38;5.90;73.90
1996;DHT22;38556;47.068;15.408;2023-02-28T14:02:34;5.80;73.40
1996;DHT22;38556;47.068;15.408;2023-02-28T14:05:13;6.10;79.70
1996;DHT22;38556;47.068;15.408;2023-02-28T14:07:45;6.50;74.70
1996;DHT22;38556;47.068;15.408;2023-02-28T14:10:26;6.90;73.90
1996;DHT22;38556;47.068;15.408;2023-02-28T14:13:02;7.10;73.40
1996;DHT22;38556;47.068;15.408;2023-02-28T14:15:40;8.00;92.10
1996;DHT22;38556;47.068;15.408;2023-02-28T14:18:24;8.50;92.60
1996;DHT22;38556;47.068;15.408;2023-02-28T14:20:58;8.80;92.00
1996;DHT22;38556;47.068;15.408;2023-02-28T14:24:01;9.00;91.50
1996;DHT22;38556;47.068;15.408;2023-02-28T14:26:49;9.50;76.50
1996;DHT22;38556;47.068;15.408;2023-02-28T14:29:38;9.40;74.70
1996;DHT22;38556;47.068;15.408;2023-02-28T14:32:17;9.50;70.40
1996;DHT22;38556;47.068;15.408;2023-02-28T14:34:54;8.90;69.20
1996;DHT22;38556;47.068;15.408;2023-02-28T14:37:27;8.90;68.10
1996;DHT22;38556;47.068;15.408;2023-02-28T14:39:56;9.30;68.90
1996;DHT22;38556;47.068;15.408;2023-02-28T14:42:31;9.50;68.20
1996;DHT22;38556;47.068;15.408;2023-02-28T14:45:00;9.40;67.30
1996;DHT22;38556;47.068;15.408;2023-02-28T14:47:30;9.60;66.80
1996;DHT22;38556;47.068;15.408;2023-02-28T14:50:01;9.70;66.30
1996;DHT22;38556;47.068;15.408;2023-02-28T14:52:31;9.70;65.60
1996;DHT22;38556;47.068;15.408;2023-02-28T14:55:03;9.60;65.70
1996;DHT22;38556;47.068;15.408;2023-02-28T14:57:34;9.60;67.80
1996;DHT22;38556;47.068;15.408;2023-02-28T15:00:05;9.70;68.40
1996;DHT22;38556;47.068;15.408;2023-02-28T15:02:39;9.70;65.80
1996;DHT22;38556;47.068;15.408;2023-02-28T15:05:23;9.80;66.10
1996;DHT22;38556;47.068;15.408;2023-02-28T15:08:03;10.10;63.80
1996;DHT22;38556;47.068;15.408;2023-02-28T15:10:31;10.30;64.40
1996;DHT22;38556;47.068;15.408;2023-02-28T15:13:00;10.60;80.70
1996;DHT22;38556;47.068;15.408;2023-02-28T15:15:40;11.00;76.80
1996;DHT22;38556;47.068;15.408;2023-02-28T15:18:15;11.20;72.10
1996;DHT22;38556;47.068;15.408;2023-02-28T15:20:45;11.50;77.60
1996;DHT22;38556;47.068;15.408;2023-02-28T15:23:14;11.60;73.80
1996;DHT22;38556;47.068;15.408;2023-02-28T15:25:42;11.70;67.90
1996;DHT22;38556;47.068;15.408;2023-02-28T15:28:14;11.90;62.30
1996;DHT22;38556;47.068;15.408;2023-02-28T15:30:55;12.00;61.00
1996;DHT22;38556;47.068;15.408;2023-02-28T15:33:25;12.10;59.90
1996;DHT22;38556;47.068;15.408;2023-02-28T15:36:04;11.90;59.70
1996;DHT22;38556;47.068;15.408;2023-02-28T15:38:34;12.20;59.30
1996;DHT22;38556;47.068;15.408;2023-02-28T15:41:03;12.40;58.30
1996;DHT22;38556;47.068;15.408;2023-02-28T15:43:35;12.40;57.90
1996;DHT22;38556;47.068;15.408;2023-02-28T15:46:05;12.50;58.20
1996;DHT22;38556;47.068;15.408;2023-02-28T15:48:35;13.00;57.80
1996;DHT22;38556;47.068;15.408;2023-02-28T15:51:09;13.10;57.20
1996;DHT22;38556;47.068;15.408;2023-02-28T15:53:43;12.90;57.00
1996;DHT22;38556;47.068;15.408;2023-02-28T15:56:22;12.60;56.90
1996;DHT22;38556;47.068;15.408;2023-02-28T15:58:50;12.80;56.40
1996;DHT22;38556;47.068;15.408;2023-02-28T16:01:24;12.90;56.60
1996;DHT22;38556;47.068;15.408;2023-02-28T16:03:54;12.70;56.50
1996;DHT22;38556;47.068;15.408;2023-02-28T16:06:33;12.20;56.00
1996;DHT22;38556;47.068;15.408;2023-02-28T16:09:01;11.90;55.70
1996;DHT22;38556;47.068;15.408;2023-02-28T16:11:30;11.40;56.20
1996;DHT22;38556;47.068;15.408;2023-02-28T16:13:59;11.10;56.90
1996;DHT22;38556;47.068;15.408;2023-02-28T16:16:27;10.80;57.10
1996;DHT22;38556;47.068;15.408;2023-02-28T16:18:54;10.10;57.60
1996;DHT22;38556;47.068;15.408;2023-02-28T16:21:21;10.00;58.30
1996;DHT22;38556;47.068;15.408;2023-02-28T16:23:51;9.80;58.70
1996;DHT22;38556;47.068;15.408;2023-02-28T16:26:21;9.70;59.40
1996;DHT22;38556;47.068;15.408;2023-02-28T16:28:50;9.50;59.20
1996;DHT22;38556;47.068;15.408;2023-02-28T16:31:18;9.30;59.20
1996;DHT22;38556;47.068;15.408;2023-02-28T16:33:46;9.10;59.90
1996;DHT22;38556;47.068;15.408;2023-02-28T16:36:16;8.80;60.50
1996;DHT22;38556;47.068;15.408;2023-02-28T16:38:44;8.70;60.70
1996;DHT22;38556;47.068;15.408;2023-02-28T16:41:19;8.50;61.70
1996;DHT22;38556;47.068;15.408;2023-02-28T16:43:50;8.40;62.00
1996;DHT22;38556;47.068;15.408;2023-02-28T16:46:18;8.10;62.00
1996;DHT22;38556;47.068;15.408;2023-02-28T16:48:46;8.00;62.20
1996;DHT22;38556;47.068;15.408;2023-02-28T16:51:18;7.90;63.30
1996;DHT22;38556;47.068;15.408;2023-02-28T16:53:45;7.80;63.10
1996;DHT22;38556;47.068;15.408;2023-02-28T16:56:20;7.60;63.40
1996;DHT22;38556;47.068;15.408;2023-02-28T16:58:49;7.50;63.50
1996;DHT22;38556;47.068;15.408;2023-02-28T17:01:17;7.40;64.40